sensor_id;sensor_type;location;lat;lon;timestamp;P1;durP1;ratioP1;P2;durP2;ratioP2
36585;SDS011;22591;48.314;11.562;2023-02-28T00:00:28;4.70;;;4.17;;
36585;SDS011;22591;48.314;11.562;2023-02-28T00:02:53;4.97;;;4.57;;
36585;SDS011;22591;48.314;11.562;2023-02-28T00:05:20;4.83;;;4.50;;
36585;SDS011;22591;48.314;11.562;2023-02-28T00:07:47;6.50;;;4.70;;
36585;SDS011;22591;48.314;11.562;2023-02-28T00:10:16;5.10;;;4.25;;
36585;SDS011;22591;48.314;11.562;2023-02-28T00:12:48;4.90;;;4.50;;
36585;SDS011;22591;48.314;11.562;2023-02-28T00:15:17;4.33;;;3.97;;
36585;SDS011;22591;48.314;11.562;2023-02-28T00:17:43;4.40;;;4.10;;
36585;SDS011;22591;48.314;11.562;2023-02-28T00:20:10;4.57;;;4.17;;
36585;SDS011;22591;48.314;11.562;2023-02-28T00:22:38;7.00;;;4.70;;
36585;SDS011;22591;48.314;11.562;2023-02-28T00:25:05;4.67;;;4.27;;
36585;SDS011;22591;48.314;11.562;2023-02-28T00:27:35;4.73;;;4.33;;
36585;SDS011;22591;48.314;11.562;2023-02-28T00:30:01;5.47;;;4.80;;
36585;SDS011;22591;48.314;11.562;2023-02-28T00:32:27;5.30;;;4.90;;
36585;SDS011;22591;48.314;11.562;2023-02-28T00:34:52;5.87;;;4.63;;
36585;SDS011;22591;48.314;11.562;2023-02-28T00:37:18;5.13;;;4.67;;
36585;SDS011;22591;48.314;11.562;2023-02-28T00:39:44;4.87;;;4.20;;
36585;SDS011;22591;48.314;11.562;2023-02-28T00:42:09;7.80;;;4.43;;
36585;SDS011;22591;48.314;11.562;2023-02-28T00:44:35;4.60;;;4.10;;
36585;SDS011;22591;48.314;11.562;2023-02-28T00:47:00;7.13;;;4.53;;
36585;SDS011;22591;48.314;11.562;2023-02-28T00:49:26;4.77;;;4.27;;
36585;SDS011;22591;48.314;11.562;2023-02-28T00:51:53;4.30;;;4.00;;
36585;SDS011;22591;48.314;11.562;2023-02-28T00:54:19;4.53;;;4.20;;
36585;SDS011;22591;48.314;11.562;2023-02-28T00:56:46;4.67;;;4.27;;
36585;SDS011;22591;48.314;11.562;2023-02-28T00:59:15;5.00;;;4.30;;
36585;SDS011;22591;48.314;11.562;2023-02-28T01:01:41;4.30;;;3.90;;
36585;SDS011;22591;48.314;11.562;2023-02-28T01:04:08;4.83;;;4.43;;
36585;SDS011;22591;48.314;11.562;2023-02-28T01:06:34;4.77;;;4.37;;
36585;SDS011;22591;48.314;11.562;2023-02-28T01:09:00;4.20;;;3.70;;
36585;SDS011;22591;48.314;11.562;2023-02-28T01:11:27;4.63;;;4.27;;
36585;SDS011;22591;48.314;11.562;2023-02-28T01:13:52;4.90;;;4.43;;
36585;SDS011;22591;48.314;11.562;2023-02-28T01:16:18;5.00;;;4.60;;
36585;SDS011;22591;48.314;11.562;2023-02-28T01:18:43;5.33;;;4.50;;
36585;SDS011;22591;48.314;11.562;2023-02-28T01:21:10;5.47;;;5.03;;
36585;SDS011;22591;48.314;11.562;2023-02-28T01:23:40;4.93;;;4.50;;
36585;SDS011;22591;48.314;11.562;2023-02-28T01:26:07;4.83;;;4.33;;
36585;SDS011;22591;48.314;11.562;2023-02-28T01:28:35;5.20;;;4.80;;
36585;SDS011;22591;48.314;11.562;2023-02-28T01:31:00;4.87;;;4.47;;
36585;SDS011;22591;48.314;11.562;2023-02-28T01:33:26;4.80;;;4.30;;
36585;SDS011;22591;48.314;11.562;2023-02-28T01:36:02;5.23;;;4.83;;
36585;SDS011;22591;48.314;11.562;2023-02-28T01:38:32;5.00;;;4.60;;
36585;SDS011;22591;48.314;11.562;2023-02-28T01:40:58;6.33;;;5.30;;
36585;SDS011;22591;48.314;11.562;2023-02-28T01:43:25;5.37;;;5.00;;
36585;SDS011;22591;48.314;11.562;2023-02-28T01:45:53;5.23;;;4.57;;
36585;SDS011;22591;48.314;11.562;2023-02-28T01:48:21;5.50;;;5.00;;
36585;SDS011;22591;48.314;11.562;2023-02-28T01:50:51;4.97;;;4.57;;
36585;SDS011;22591;48.314;11.562;2023-02-28T01:53:19;5.50;;;5.00;;
36585;SDS011;22591;48.314;11.562;2023-02-28T01:55:50;5.67;;;5.10;;
36585;SDS011;22591;48.314;11.562;2023-02-28T01:58:18;5.70;;;5.17;;
36585;SDS011;22591;48.314;11.562;2023-02-28T02:00:43;5.33;;;4.83;;
36585;SDS011;22591;48.314;11.562;2023-02-28T02:03:11;5.37;;;4.87;;
36585;SDS011;22591;48.314;11.562;2023-02-28T02:05:39;5.40;;;4.50;;
36585;SDS011;22591;48.314;11.562;2023-02-28T02:08:08;5.30;;;4.80;;
36585;SDS011;22591;48.314;11.562;2023-02-28T02:10:40;8.27;;;5.13;;
36585;SDS011;22591;48.314;11.562;2023-02-28T02:13:25;6.10;;;5.13;;
36585;SDS011;22591;48.314;11.562;2023-02-28T02:16:02;5.70;;;5.13;;
36585;SDS011;22591;48.314;11.562;2023-02-28T02:21:28;5.50;;;5.03;;
36585;SDS011;22591;48.314;11.562;2023-02-28T02:35:25;6.13;;;4.97;;
36585;SDS011;22591;48.314;11.562;2023-02-28T02:38:00;6.37;;;5.77;;
36585;SDS011;22591;48.314;11.562;2023-02-28T02:40:34;7.00;;;5.20;;
36585;SDS011;22591;48.314;11.562;2023-02-28T02:43:06;7.53;;;5.90;;
36585;SDS011;22591;48.314;11.562;2023-02-28T02:45:44;6.20;;;5.60;;
36585;SDS011;22591;48.314;11.562;2023-02-28T02:48:16;5.53;;;5.13;;
36585;SDS011;22591;48.314;11.562;2023-02-28T02:50:54;6.87;;;6.17;;
36585;SDS011;22591;48.314;11.562;2023-02-28T02:53:24;6.43;;;5.80;;
36585;SDS011;22591;48.314;11.562;2023-02-28T02:55:55;6.13;;;5.53;;
36585;SDS011;22591;48.314;11.562;2023-02-28T02:58:22;6.27;;;5.67;;
36585;SDS011;22591;48.314;11.562;2023-02-28T03:00:55;6.07;;;5.37;;
36585;SDS011;22591;48.314;11.562;2023-02-28T03:03:24;8.07;;;6.37;;
36585;SDS011;22591;48.314;11.562;2023-02-28T03:05:55;6.57;;;5.97;;
36585;SDS011;22591;48.314;11.562;2023-02-28T03:08:22;6.53;;;5.93;;
36585;SDS011;22591;48.314;11.562;2023-02-28T03:10:48;7.03;;;6.30;;
36585;SDS011;22591;48.314;11.562;2023-02-28T03:24:43;6.80;;;6.10;;
36585;SDS011;22591;48.314;11.562;2023-02-28T03:27:16;6.20;;;5.67;;
36585;SDS011;22591;48.314;11.562;2023-02-28T03:29:51;9.57;;;6.03;;
36585;SDS011;22591;48.314;11.562;2023-02-28T03:32:42;6.87;;;6.17;;
36585;SDS011;22591;48.314;11.562;2023-02-28T03:35:21;7.53;;;6.83;;
36585;SDS011;22591;48.314;11.562;2023-02-28T03:37:50;6.67;;;6.07;;
36585;SDS011;22591;48.314;11.562;2023-02-28T03:40:23;7.03;;;6.33;;
36585;SDS011;22591;48.314;11.562;2023-02-28T03:42:52;7.67;;;5.93;;
36585;SDS011;22591;48.314;11.562;2023-02-28T03:45:24;7.10;;;6.40;;
36585;SDS011;22591;48.314;11.562;2023-02-28T03:48:01;7.63;;;6.93;;
36585;SDS011;22591;48.314;11.562;2023-02-28T03:50:45;7.93;;;7.13;;
36585;SDS011;22591;48.314;11.562;2023-02-28T03:55:49;9.20;;;6.77;;
36585;SDS011;22591;48.314;11.562;2023-02-28T03:58:41;9.43;;;7.13;;
36585;SDS011;22591;48.314;11.562;2023-02-28T04:01:24;8.30;;;7.45;;
36585;SDS011;22591;48.314;11.562;2023-02-28T04:03:55;9.40;;;7.47;;
36585;SDS011;22591;48.314;11.562;2023-02-28T04:06:21;8.52;;;6.53;;
36585;SDS011;22591;48.314;11.562;2023-02-28T04:08:47;10.67;;;8.37;;
36585;SDS011;22591;48.314;11.562;2023-02-28T04:13:57;7.40;;;5.97;;
36585;SDS011;22591;48.314;11.562;2023-02-28T04:16:23;8.82;;;7.80;;
36585;SDS011;22591;48.314;11.562;2023-02-28T04:18:48;8.73;;;7.17;;
36585;SDS011;22591;48.314;11.562;2023-02-28T04:21:14;10.03;;;7.47;;
36585;SDS011;22591;48.314;11.562;2023-02-28T04:23:40;7.90;;;7.20;;
36585;SDS011;22591;48.314;11.562;2023-02-28T04:26:05;9.60;;;7.87;;
36585;SDS011;22591;48.314;11.562;2023-02-28T04:28:33;8.50;;;7.70;;
36585;SDS011;22591;48.314;11.562;2023-02-28T04:30:59;7.80;;;6.97;;
36585;SDS011;22591;48.314;11.562;2023-02-28T04:33:27;9.30;;;7.80;;
36585;SDS011;22591;48.314;11.562;2023-02-28T04:36:06;8.50;;;7.33;;
36585;SDS011;22591;48.314;11.562;2023-02-28T04:38:36;8.43;;;7.53;;
36585;SDS011;22591;48.314;11.562;2023-02-28T04:41:03;8.13;;;7.10;;
36585;SDS011;22591;48.314;11.562;2023-02-28T04:43:30;15.53;;;9.67;;
36585;SDS011;22591;48.314;11.562;2023-02-28T04:45:57;8.90;;;7.20;;
36585;SDS011;22591;48.314;11.562;2023-02-28T04:48:27;10.57;;;8.10;;
36585;SDS011;22591;48.314;11.562;2023-02-28T04:50:53;9.23;;;7.57;;
36585;SDS011;22591;48.314;11.562;2023-02-28T04:53:19;8.30;;;7.43;;
36585;SDS011;22591;48.314;11.562;2023-02-28T04:55:45;11.37;;;8.43;;
36585;SDS011;22591;48.314;11.562;2023-02-28T04:58:12;9.40;;;8.50;;
36585;SDS011;22591;48.314;11.562;2023-02-28T05:00:38;9.00;;;7.53;;
36585;SDS011;22591;48.314;11.562;2023-02-28T05:03:04;11.03;;;9.90;;
36585;SDS011;22591;48.314;11.562;2023-02-28T05:05:29;10.30;;;8.70;;
36585;SDS011;22591;48.314;11.562;2023-02-28T05:07:55;9.03;;;8.13;;
36585;SDS011;22591;48.314;11.562;2023-02-28T05:10:21;9.40;;;8.40;;
36585;SDS011;22591;48.314;11.562;2023-02-28T05:12:47;9.47;;;8.57;;
36585;SDS011;22591;48.314;11.562;2023-02-28T05:15:13;10.20;;;7.93;;
36585;SDS011;22591;48.314;11.562;2023-02-28T05:17:39;14.40;;;8.77;;
36585;SDS011;22591;48.314;11.562;2023-02-28T05:20:05;9.70;;;8.20;;
36585;SDS011;22591;48.314;11.562;2023-02-28T05:22:32;11.63;;;9.50;;
36585;SDS011;22591;48.314;11.562;2023-02-28T05:24:57;10.33;;;8.70;;
36585;SDS011;22591;48.314;11.562;2023-02-28T05:27:23;10.77;;;8.17;;
36585;SDS011;22591;48.314;11.562;2023-02-28T05:29:48;10.37;;;8.37;;
36585;SDS011;22591;48.314;11.562;2023-02-28T05:32:14;12.53;;;9.47;;
36585;SDS011;22591;48.314;11.562;2023-02-28T05:34:40;12.00;;;8.00;;
36585;SDS011;22591;48.314;11.562;2023-02-28T05:37:06;10.63;;;9.53;;
36585;SDS011;22591;48.314;11.562;2023-02-28T05:39:36;12.73;;;9.23;;
36585;SDS011;22591;48.314;11.562;2023-02-28T05:42:02;10.40;;;8.90;;
36585;SDS011;22591;48.314;11.562;2023-02-28T05:44:27;11.93;;;9.57;;
36585;SDS011;22591;48.314;11.562;2023-02-28T05:46:53;12.07;;;9.97;;
36585;SDS011;22591;48.314;11.562;2023-02-28T05:49:18;11.90;;;9.03;;
36585;SDS011;22591;48.314;11.562;2023-02-28T05:51:44;9.73;;;8.67;;
36585;SDS011;22591;48.314;11.562;2023-02-28T05:54:10;11.13;;;9.47;;
36585;SDS011;22591;48.314;11.562;2023-02-28T05:56:35;10.40;;;9.40;;
36585;SDS011;22591;48.314;11.562;2023-02-28T05:59:05;9.90;;;8.90;;
36585;SDS011;22591;48.314;11.562;2023-02-28T06:04:01;14.07;;;10.30;;
36585;SDS011;22591;48.314;11.562;2023-02-28T06:06:29;12.73;;;10.03;;
36585;SDS011;22591;48.314;11.562;2023-02-28T06:08:55;9.87;;;8.87;;
36585;SDS011;22591;48.314;11.562;2023-02-28T06:11:21;13.50;;;8.87;;
36585;SDS011;22591;48.314;11.562;2023-02-28T06:13:53;10.87;;;9.77;;
36585;SDS011;22591;48.314;11.562;2023-02-28T06:16:24;10.97;;;9.37;;
36585;SDS011;22591;48.314;11.562;2023-02-28T06:18:50;12.40;;;9.57;;
36585;SDS011;22591;48.314;11.562;2023-02-28T06:21:17;12.53;;;8.63;;
36585;SDS011;22591;48.314;11.562;2023-02-28T06:23:43;10.73;;;9.57;;
36585;SDS011;22591;48.314;11.562;2023-02-28T06:26:09;12.37;;;10.43;;
36585;SDS011;22591;48.314;11.562;2023-02-28T06:28:35;12.10;;;10.13;;
36585;SDS011;22591;48.314;11.562;2023-02-28T06:31:05;13.53;;;9.90;;
36585;SDS011;22591;48.314;11.562;2023-02-28T06:33:35;12.02;;;9.95;;
36585;SDS011;22591;48.314;11.562;2023-02-28T06:36:02;10.80;;;9.70;;
36585;SDS011;22591;48.314;11.562;2023-02-28T06:38:28;9.80;;;8.50;;
36585;SDS011;22591;48.314;11.562;2023-02-28T06:40:57;12.13;;;9.87;;
36585;SDS011;22591;48.314;11.562;2023-02-28T06:43:25;12.60;;;10.02;;
36585;SDS011;22591;48.314;11.562;2023-02-28T06:45:57;9.93;;;8.30;;
36585;SDS011;22591;48.314;11.562;2023-02-28T06:48:24;18.50;;;10.50;;
36585;SDS011;22591;48.314;11.562;2023-02-28T06:50:51;11.43;;;9.90;;
36585;SDS011;22591;48.314;11.562;2023-02-28T06:53:16;12.18;;;10.35;;
36585;SDS011;22591;48.314;11.562;2023-02-28T06:55:42;10.77;;;9.47;;
36585;SDS011;22591;48.314;11.562;2023-02-28T06:58:07;9.85;;;8.82;;
36585;SDS011;22591;48.314;11.562;2023-02-28T07:00:40;15.30;;;10.15;;
36585;SDS011;22591;48.314;11.562;2023-02-28T07:03:07;13.30;;;9.33;;
36585;SDS011;22591;48.314;11.562;2023-02-28T07:05:34;10.93;;;9.60;;
36585;SDS011;22591;48.314;11.562;2023-02-28T07:08:00;11.02;;;9.60;;
36585;SDS011;22591;48.314;11.562;2023-02-28T07:10:28;11.85;;;9.80;;
36585;SDS011;22591;48.314;11.562;2023-02-28T07:12:54;12.73;;;9.85;;
36585;SDS011;22591;48.314;11.562;2023-02-28T07:15:19;14.48;;;10.23;;
36585;SDS011;22591;48.314;11.562;2023-02-28T07:17:45;12.85;;;9.88;;
36585;SDS011;22591;48.314;11.562;2023-02-28T07:20:10;11.88;;;10.38;;
36585;SDS011;22591;48.314;11.562;2023-02-28T07:22:36;13.80;;;10.15;;
36585;SDS011;22591;48.314;11.562;2023-02-28T07:25:03;10.90;;;9.32;;
36585;SDS011;22591;48.314;11.562;2023-02-28T07:27:29;9.50;;;8.55;;
36585;SDS011;22591;48.314;11.562;2023-02-28T07:29:55;13.05;;;9.35;;
36585;SDS011;22591;48.314;11.562;2023-02-28T07:32:21;14.98;;;10.68;;
36585;SDS011;22591;48.314;11.562;2023-02-28T07:34:46;11.52;;;10.30;;
36585;SDS011;22591;48.314;11.562;2023-02-28T07:37:13;13.40;;;10.10;;
36585;SDS011;22591;48.314;11.562;2023-02-28T07:39:39;14.23;;;10.80;;
36585;SDS011;22591;48.314;11.562;2023-02-28T07:42:07;12.40;;;9.80;;
36585;SDS011;22591;48.314;11.562;2023-02-28T07:44:35;11.65;;;9.85;;
36585;SDS011;22591;48.314;11.562;2023-02-28T07:47:05;11.75;;;10.35;;
36585;SDS011;22591;48.314;11.562;2023-02-28T07:49:35;12.75;;;9.85;;
36585;SDS011;22591;48.314;11.562;2023-02-28T07:52:02;13.63;;;9.95;;
36585;SDS011;22591;48.314;11.562;2023-02-28T07:54:29;12.00;;;9.75;;
36585;SDS011;22591;48.314;11.562;2023-02-28T07:56:55;11.75;;;10.52;;
36585;SDS011;22591;48.314;11.562;2023-02-28T07:59:20;15.55;;;10.43;;
36585;SDS011;22591;48.314;11.562;2023-02-28T08:01:46;11.30;;;9.77;;
36585;SDS011;22591;48.314;11.562;2023-02-28T08:04:11;12.77;;;10.15;;
36585;SDS011;22591;48.314;11.562;2023-02-28T08:06:37;13.68;;;10.40;;
36585;SDS011;22591;48.314;11.562;2023-02-28T08:09:02;13.27;;;10.23;;
36585;SDS011;22591;48.314;11.562;2023-02-28T08:11:28;16.20;;;10.10;;
36585;SDS011;22591;48.314;11.562;2023-02-28T08:13:54;10.30;;;9.15;;
36585;SDS011;22591;48.314;11.562;2023-02-28T08:16:20;11.20;;;9.75;;
36585;SDS011;22591;48.314;11.562;2023-02-28T08:18:47;12.30;;;9.85;;
36585;SDS011;22591;48.314;11.562;2023-02-28T08:21:14;13.15;;;10.43;;
36585;SDS011;22591;48.314;11.562;2023-02-28T08:23:40;13.15;;;9.02;;
36585;SDS011;22591;48.314;11.562;2023-02-28T08:26:06;13.68;;;10.93;;
36585;SDS011;22591;48.314;11.562;2023-02-28T08:28:32;13.52;;;10.38;;
36585;SDS011;22591;48.314;11.562;2023-02-28T08:30:57;12.18;;;10.82;;
36585;SDS011;22591;48.314;11.562;2023-02-28T08:33:24;11.93;;;9.23;;
36585;SDS011;22591;48.314;11.562;2023-02-28T08:35:53;13.40;;;10.15;;
36585;SDS011;22591;48.314;11.562;2023-02-28T08:38:20;13.13;;;11.25;;
36585;SDS011;22591;48.314;11.562;2023-02-28T08:40:47;14.70;;;10.18;;
36585;SDS011;22591;48.314;11.562;2023-02-28T08:43:12;15.13;;;11.18;;
36585;SDS011;22591;48.314;11.562;2023-02-28T08:45:38;15.20;;;11.43;;
36585;SDS011;22591;48.314;11.562;2023-02-28T08:48:04;16.90;;;11.00;;
36585;SDS011;22591;48.314;11.562;2023-02-28T08:50:29;15.13;;;11.23;;
36585;SDS011;22591;48.314;11.562;2023-02-28T08:52:55;13.77;;;10.15;;
36585;SDS011;22591;48.314;11.562;2023-02-28T08:55:20;15.00;;;11.00;;
36585;SDS011;22591;48.314;11.562;2023-02-28T08:57:46;14.27;;;9.77;;
36585;SDS011;22591;48.314;11.562;2023-02-28T09:00:12;12.63;;;9.85;;
36585;SDS011;22591;48.314;11.562;2023-02-28T09:02:38;13.95;;;10.85;;
36585;SDS011;22591;48.314;11.562;2023-02-28T09:05:05;13.15;;;11.10;;
36585;SDS011;22591;48.314;11.562;2023-02-28T09:07:31;15.80;;;11.85;;
36585;SDS011;22591;48.314;11.562;2023-02-28T09:09:56;13.43;;;11.50;;
36585;SDS011;22591;48.314;11.562;2023-02-28T09:12:26;13.23;;;11.85;;
36585;SDS011;22591;48.314;11.562;2023-02-28T09:14:53;14.38;;;11.38;;
36585;SDS011;22591;48.314;11.562;2023-02-28T09:17:19;13.18;;;11.30;;
36585;SDS011;22591;48.314;11.562;2023-02-28T09:19:45;14.00;;;10.77;;
36585;SDS011;22591;48.314;11.562;2023-02-28T09:22:13;14.77;;;11.15;;
36585;SDS011;22591;48.314;11.562;2023-02-28T09:24:38;14.90;;;11.20;;
36585;SDS011;22591;48.314;11.562;2023-02-28T09:27:04;14.27;;;11.52;;
36585;SDS011;22591;48.314;11.562;2023-02-28T09:29:31;12.68;;;10.50;;
36585;SDS011;22591;48.314;11.562;2023-02-28T09:31:57;12.48;;;11.18;;
36585;SDS011;22591;48.314;11.562;2023-02-28T09:34:26;14.13;;;11.50;;
36585;SDS011;22591;48.314;11.562;2023-02-28T09:36:53;15.63;;;10.80;;
36585;SDS011;22591;48.314;11.562;2023-02-28T09:39:20;12.35;;;10.07;;
36585;SDS011;22591;48.314;11.562;2023-02-28T09:41:49;13.68;;;12.25;;
36585;SDS011;22591;48.314;11.562;2023-02-28T09:44:21;14.80;;;12.15;;
36585;SDS011;22591;48.314;11.562;2023-02-28T09:47:13;15.48;;;11.77;;
36585;SDS011;22591;48.314;11.562;2023-02-28T09:49:47;15.05;;;11.73;;
36585;SDS011;22591;48.314;11.562;2023-02-28T09:52:15;12.38;;;10.18;;
36585;SDS011;22591;48.314;11.562;2023-02-28T09:54:44;14.35;;;11.63;;
36585;SDS011;22591;48.314;11.562;2023-02-28T09:57:25;12.88;;;11.48;;
36585;SDS011;22591;48.314;11.562;2023-02-28T10:00:19;13.38;;;11.15;;
36585;SDS011;22591;48.314;11.562;2023-02-28T10:05:15;12.30;;;10.90;;
36585;SDS011;22591;48.314;11.562;2023-02-28T10:07:56;12.30;;;11.20;;
36585;SDS011;22591;48.314;11.562;2023-02-28T10:10:37;15.18;;;12.02;;
36585;SDS011;22591;48.314;11.562;2023-02-28T10:13:13;16.00;;;11.82;;
36585;SDS011;22591;48.314;11.562;2023-02-28T10:15:55;14.13;;;11.60;;
36585;SDS011;22591;48.314;11.562;2023-02-28T10:18:39;12.65;;;11.32;;
36585;SDS011;22591;48.314;11.562;2023-02-28T10:21:56;13.02;;;10.20;;
36585;SDS011;22591;48.314;11.562;2023-02-28T10:24:04;11.95;;;10.65;;
36585;SDS011;22591;48.314;11.562;2023-02-28T10:26:45;14.70;;;10.95;;
36585;SDS011;22591;48.314;11.562;2023-02-28T10:29:13;13.68;;;11.98;;
36585;SDS011;22591;48.314;11.562;2023-02-28T10:31:39;13.50;;;11.85;;
36585;SDS011;22591;48.314;11.562;2023-02-28T10:34:05;13.35;;;11.88;;
36585;SDS011;22591;48.314;11.562;2023-02-28T10:36:31;12.57;;;11.25;;
36585;SDS011;22591;48.314;11.562;2023-02-28T10:38:57;14.30;;;10.32;;
36585;SDS011;22591;48.314;11.562;2023-02-28T10:41:29;12.35;;;10.98;;
36585;SDS011;22591;48.314;11.562;2023-02-28T10:44:12;13.30;;;11.45;;
36585;SDS011;22591;48.314;11.562;2023-02-28T10:46:39;14.00;;;11.80;;
36585;SDS011;22591;48.314;11.562;2023-02-28T10:49:11;14.80;;;10.82;;
36585;SDS011;22591;48.314;11.562;2023-02-28T10:51:40;13.75;;;11.48;;
36585;SDS011;22591;48.314;11.562;2023-02-28T10:54:14;15.30;;;12.10;;
36585;SDS011;22591;48.314;11.562;2023-02-28T10:56:44;15.32;;;11.40;;
36585;SDS011;22591;48.314;11.562;2023-02-28T10:59:29;16.30;;;11.32;;
36585;SDS011;22591;48.314;11.562;2023-02-28T11:01:55;15.60;;;11.80;;
36585;SDS011;22591;48.314;11.562;2023-02-28T11:06:47;12.45;;;11.20;;
36585;SDS011;22591;48.314;11.562;2023-02-28T11:09:24;13.07;;;11.27;;
36585;SDS011;22591;48.314;11.562;2023-02-28T11:11:54;11.93;;;10.43;;
36585;SDS011;22591;48.314;11.562;2023-02-28T11:14:21;13.50;;;12.10;;
36585;SDS011;22591;48.314;11.562;2023-02-28T11:16:52;13.48;;;11.15;;
36585;SDS011;22591;48.314;11.562;2023-02-28T11:19:30;11.93;;;10.48;;
36585;SDS011;22591;48.314;11.562;2023-02-28T11:22:03;12.25;;;11.05;;
36585;SDS011;22591;48.314;11.562;2023-02-28T11:25:06;13.10;;;11.07;;
36585;SDS011;22591;48.314;11.562;2023-02-28T11:27:25;11.82;;;10.63;;
36585;SDS011;22591;48.314;11.562;2023-02-28T11:29:59;13.00;;;11.63;;
36585;SDS011;22591;48.314;11.562;2023-02-28T11:32:26;13.52;;;11.85;;
36585;SDS011;22591;48.314;11.562;2023-02-28T11:37:34;13.32;;;11.45;;
36585;SDS011;22591;48.314;11.562;2023-02-28T11:40:00;12.13;;;10.80;;
36585;SDS011;22591;48.314;11.562;2023-02-28T12:02:03;12.98;;;11.68;;
36585;SDS011;22591;48.314;11.562;2023-02-28T12:10:23;13.38;;;11.43;;
36585;SDS011;22591;48.314;11.562;2023-02-28T12:21:31;14.02;;;11.23;;
36585;SDS011;22591;48.314;11.562;2023-02-28T12:24:14;12.48;;;10.95;;
36585;SDS011;22591;48.314;11.562;2023-02-28T12:26:46;12.55;;;11.02;;
36585;SDS011;22591;48.314;11.562;2023-02-28T12:29:28;11.00;;;10.00;;
36585;SDS011;22591;48.314;11.562;2023-02-28T12:32:25;11.52;;;10.35;;
36585;SDS011;22591;48.314;11.562;2023-02-28T12:34:57;11.73;;;10.52;;
36585;SDS011;22591;48.314;11.562;2023-02-28T12:37:29;11.65;;;10.45;;
36585;SDS011;22591;48.314;11.562;2023-02-28T12:40:00;12.57;;;11.27;;
36585;SDS011;22591;48.314;11.562;2023-02-28T12:42:31;12.52;;;11.15;;
36585;SDS011;22591;48.314;11.562;2023-02-28T12:45:02;11.60;;;10.57;;
36585;SDS011;22591;48.314;11.562;2023-02-28T12:47:35;13.45;;;11.85;;
36585;SDS011;22591;48.314;11.562;2023-02-28T12:50:06;13.43;;;10.90;;
36585;SDS011;22591;48.314;11.562;2023-02-28T12:52:51;16.42;;;11.65;;
36585;SDS011;22591;48.314;11.562;2023-02-28T12:55:34;13.40;;;11.05;;
36585;SDS011;22591;48.314;11.562;2023-02-28T13:00:28;11.98;;;10.55;;
36585;SDS011;22591;48.314;11.562;2023-02-28T13:03:12;12.05;;;10.77;;
36585;SDS011;22591;48.314;11.562;2023-02-28T13:06:04;13.73;;;11.75;;
36585;SDS011;22591;48.314;11.562;2023-02-28T13:14:06;14.65;;;11.70;;
36585;SDS011;22591;48.314;11.562;2023-02-28T13:19:33;11.20;;;10.10;;
36585;SDS011;22591;48.314;11.562;2023-02-28T13:22:00;11.40;;;10.20;;
36585;SDS011;22591;48.314;11.562;2023-02-28T13:24:46;12.43;;;11.15;;
36585;SDS011;22591;48.314;11.562;2023-02-28T13:29:40;11.43;;;10.32;;
36585;SDS011;22591;48.314;11.562;2023-02-28T13:39:55;12.32;;;11.13;;
36585;SDS011;22591;48.314;11.562;2023-02-28T13:45:18;11.38;;;10.18;;
36585;SDS011;22591;48.314;11.562;2023-02-28T13:47:52;12.27;;;10.88;;
36585;SDS011;22591;48.314;11.562;2023-02-28T13:58:53;11.95;;;10.70;;
36585;SDS011;22591;48.314;11.562;2023-02-28T14:04:56;12.15;;;11.00;;
36585;SDS011;22591;48.314;11.562;2023-02-28T14:07:48;13.98;;;11.57;;
36585;SDS011;22591;48.314;11.562;2023-02-28T14:10:31;13.55;;;11.40;;
36585;SDS011;22591;48.314;11.562;2023-02-28T14:13:11;12.23;;;10.93;;
36585;SDS011;22591;48.314;11.562;2023-02-28T14:15:59;13.55;;;10.93;;
36585;SDS011;22591;48.314;11.562;2023-02-28T14:18:31;11.18;;;10.07;;
36585;SDS011;22591;48.314;11.562;2023-02-28T14:21:10;12.70;;;11.38;;
36585;SDS011;22591;48.314;11.562;2023-02-28T14:27:11;12.55;;;11.02;;
36585;SDS011;22591;48.314;11.562;2023-02-28T14:32:25;11.52;;;10.35;;
36585;SDS011;22591;48.314;11.562;2023-02-28T14:38:00;13.18;;;11.07;;
36585;SDS011;22591;48.314;11.562;2023-02-28T14:43:00;11.18;;;9.95;;
36585;SDS011;22591;48.314;11.562;2023-02-28T14:45:30;12.82;;;9.93;;
36585;SDS011;22591;48.314;11.562;2023-02-28T14:47:59;13.77;;;10.57;;
36585;SDS011;22591;48.314;11.562;2023-02-28T14:50:30;13.75;;;11.77;;
36585;SDS011;22591;48.314;11.562;2023-02-28T14:52:58;11.23;;;10.10;;
36585;SDS011;22591;48.314;11.562;2023-02-28T14:55:26;11.43;;;10.30;;
36585;SDS011;22591;48.314;11.562;2023-02-28T14:57:56;12.73;;;11.00;;
36585;SDS011;22591;48.314;11.562;2023-02-28T15:00:23;12.77;;;11.50;;
36585;SDS011;22591;48.314;11.562;2023-02-28T15:02:55;10.93;;;9.82;;
36585;SDS011;22591;48.314;11.562;2023-02-28T15:05:24;12.05;;;10.38;;
36585;SDS011;22591;48.314;11.562;2023-02-28T15:08:01;12.00;;;10.80;;
36585;SDS011;22591;48.314;11.562;2023-02-28T15:10:42;11.63;;;10.43;;
36585;SDS011;22591;48.314;11.562;2023-02-28T15:13:18;12.35;;;10.38;;
36585;SDS011;22591;48.314;11.562;2023-02-28T15:15:47;20.48;;;11.68;;
36585;SDS011;22591;48.314;11.562;2023-02-28T15:23:38;16.00;;;11.57;;
36585;SDS011;22591;48.314;11.562;2023-02-28T15:26:09;14.25;;;10.80;;
36585;SDS011;22591;48.314;11.562;2023-02-28T15:28:40;17.33;;;10.95;;
36585;SDS011;22591;48.314;11.562;2023-02-28T15:31:19;14.60;;;11.98;;
36585;SDS011;22591;48.314;11.562;2023-02-28T15:33:58;13.88;;;11.88;;
36585;SDS011;22591;48.314;11.562;2023-02-28T15:36:29;11.48;;;10.20;;
36585;SDS011;22591;48.314;11.562;2023-02-28T15:38:58;13.05;;;10.57;;
36585;SDS011;22591;48.314;11.562;2023-02-28T15:41:34;14.02;;;11.55;;
36585;SDS011;22591;48.314;11.562;2023-02-28T15:44:14;14.50;;;11.35;;
36585;SDS011;22591;48.314;11.562;2023-02-28T15:46:56;11.95;;;10.70;;
36585;SDS011;22591;48.314;11.562;2023-02-28T15:49:45;12.57;;;11.05;;
36585;SDS011;22591;48.314;11.562;2023-02-28T15:52:23;12.43;;;11.23;;
36585;SDS011;22591;48.314;11.562;2023-02-28T15:54:49;13.02;;;11.63;;
36585;SDS011;22591;48.314;11.562;2023-02-28T15:57:33;12.27;;;10.98;;
36585;SDS011;22591;48.314;11.562;2023-02-28T16:00:00;12.98;;;10.40;;
36585;SDS011;22591;48.314;11.562;2023-02-28T16:05:00;12.60;;;11.30;;
36585;SDS011;22591;48.314;11.562;2023-02-28T16:07:39;11.80;;;10.55;;
36585;SDS011;22591;48.314;11.562;2023-02-28T16:10:07;15.10;;;11.18;;
36585;SDS011;22591;48.314;11.562;2023-02-28T16:12:36;12.75;;;11.43;;
36585;SDS011;22591;48.314;11.562;2023-02-28T16:15:45;13.27;;;11.88;;
36585;SDS011;22591;48.314;11.562;2023-02-28T16:17:54;12.70;;;11.38;;
36585;SDS011;22591;48.314;11.562;2023-02-28T16:20:25;12.93;;;11.50;;
36585;SDS011;22591;48.314;11.562;2023-02-28T16:22:55;12.70;;;11.40;;
36585;SDS011;22591;48.314;11.562;2023-02-28T16:25:26;14.70;;;11.45;;
36585;SDS011;22591;48.314;11.562;2023-02-28T16:27:58;13.52;;;11.40;;
36585;SDS011;22591;48.314;11.562;2023-02-28T16:30:26;13.18;;;11.10;;
36585;SDS011;22591;48.314;11.562;2023-02-28T16:32:54;12.30;;;10.90;;
36585;SDS011;22591;48.314;11.562;2023-02-28T16:35:21;14.80;;;11.77;;
36585;SDS011;22591;48.314;11.562;2023-02-28T16:37:47;15.02;;;11.50;;
36585;SDS011;22591;48.314;11.562;2023-02-28T16:40:14;13.40;;;11.57;;
36585;SDS011;22591;48.314;11.562;2023-02-28T16:42:42;13.60;;;11.35;;
36585;SDS011;22591;48.314;11.562;2023-02-28T16:45:14;17.00;;;12.57;;